Wednesday, February 22, 2017, 12:29 PM EST

KTHV, York Airport

Location: Spring Grove, PA, United States Lat: 39.917
Local Time: 12:29 PM EST (17:29 GMT) Lon: -76.883
Time Zone: US/Eastern Elev: 478 ft

Show me the last for .
Show Decoded

2017-02-22 11:53 METAR KTHV 221653Z AUTO 00000KT 10SM CLR 13/06 A2997 RMK AO2 SLP151 T01330056 =
2017-02-22 10:53 METAR KTHV 221553Z AUTO 14003KT 10SM CLR 11/05 A2999 RMK AO2 SLP160 T01110050 =
2017-02-22 09:53 METAR KTHV 221453Z AUTO 00000KT 10SM CLR 10/04 A3001 RMK AO2 SLP166 T01000044
                 58002 =
2017-02-22 08:53 METAR KTHV 221353Z AUTO 19003KT 10SM CLR 08/04 A3002 RMK AO2 SLP171 T00780044 =
2017-02-22 07:53 METAR KTHV 221253Z AUTO 13003KT 10SM SCT085 BKN100 06/04 A3002 RMK AO2 SLP172
                 T00560039 =
2017-02-22 06:53 METAR KTHV 221153Z AUTO 16003KT 10SM OVC090 05/03 A3001 RMK AO2 SLP168 T00500028
                 10072 20044 58001 =
2017-02-22 05:53 METAR KTHV 221053Z AUTO 00000KT 10SM OVC100 06/03 A3001 RMK AO2 SLP168 T00560028
                 =
2017-02-22 04:53 METAR KTHV 220953Z AUTO 00000KT 10SM CLR 06/03 A3002 RMK AO2 SLP171 T00560028 =
2017-02-21 15:53 METAR KTHV 212053Z AUTO 16007KT 130V190 10SM CLR 11/M02 A3016 RMK AO2 SLP218
                 T01061022 56024 =
2017-02-21 14:53 METAR KTHV 211953Z AUTO 14007G14KT 10SM CLR 11/M03 A3017 RMK AO2 SLP221
                 T01111028 =
2017-02-21 13:53 METAR KTHV 211853Z AUTO VRB06KT 10SM CLR 11/M03 A3019 RMK AO2 SLP228 T01061028 =
2017-02-21 12:53 METAR KTHV 211753Z AUTO 20007KT 10SM CLR 10/M04 A3023 RMK AO2 SLP241 T01001039
                 10100 21039 58029 =

Support USWX by starting your Amazon purchase here.